Bei Facebook empfehlenBei Twitter postenGoogle plusPinterest

Das Wetter im Erzgebirge am 07.08.2017

Wetter und Klima am 07.08.2017 Holzhau im Erzgebirge (630m ü.NN)
Letzte gemessene Temperatur und Uhrzeit der Messung23:45:00 Uhr9.20 °C
Temperatur (Maximum / Höchstwert) und Uhrzeit der Messung17:00:00 Uhr23.30 °C
Temperatur (Minimum / Tiefstwert) und Uhrzeit der Messung06:00:005.20 °C
Errechneter Absolutwert der Temperaturschwankungen zwischen Tmin und Tmax des Tages18.10 K
Errechnete Tagesmitteltemperatur14.46563 °C
Gesamt - Niederschlag des Tages (in flüssiger Form)0.00 Liter / m²
Luftdruck (Maximum / Höchstwert) und Zeitpunkt der Messung03:30:00 Uhr1020.20 hPa
Luftdruck (Minimum / Tiefstwert) und Zeitpunkt der Messung23:45:00 Uhr1016.20 hPa
Errechneter Absolutwert der Luftdruckschwankungen des Tages4.00 hPa
Höchste gemessene Windgeschwindigkeit und Uhrzeit der Messung15:45:00 Uhr49.32 km/h
Errechnete Windhäufigkeit in Relation zu den Messwerten des Tages17.70833 %
Niedrigste Windkühle (Windchill) und Zeitpunkt der Messung04:00:00 Uhr4.70 °C
Taupunkt (Maximum / Höchstwert) und Uhrzeit der Messung12:45:00 Uhr11.00 °C
Taupunkt (Minimum / Tiefstwert) und Uhrzeit der Messung05:45:003.90 °C
Anzahl der automatisch eingelesenen Messwerte 96

Detaillierte Wetter- und Klima- Messwerte für den 07.08.2017 in Holzhau im Erzgebirge (630m ü.NN)
ZeitTemperaturLuftdruckRel. LuftfeuchteWindWindrichtungWindchillTaupunktNiederschlag l/m²
23:45:009.20 °C1016.20 hPa80.00 %5.90 °C 
23:30:009.60 °C1016.20 hPa79.00 %6.10 °C 
23:15:009.90 °C1016.20 hPa78.00 %12.96 km/hSO9.90 °C6.20 °C 
23:00:009.90 °C1016.30 hPa78.00 %6.20 °C 
22:45:009.90 °C1016.40 hPa78.00 %6.20 °C 
22:30:0010.30 °C1016.70 hPa77.00 %6.50 °C 
22:15:0010.60 °C1016.60 hPa75.00 %6.40 °C 
22:00:0010.90 °C1016.50 hPa74.00 %6.50 °C 
21:45:0011.30 °C1016.70 hPa73.00 %6.60 °C 
21:30:0011.50 °C1016.70 hPa71.00 %6.40 °C 
21:15:0012.20 °C1016.70 hPa68.00 %6.50 °C 
21:00:0013.00 °C1016.70 hPa66.00 %6.80 °C 
20:45:0014.10 °C1016.50 hPa63.00 %7.20 °C 
20:30:0015.40 °C1016.50 hPa60.00 %7.70 °C 
20:15:0016.90 °C1016.50 hPa55.00 %7.80 °C 
20:00:0018.10 °C1016.60 hPa52.00 %8.10 °C 
19:45:0018.80 °C1016.50 hPa49.00 %7.90 °C 
19:30:0019.30 °C1016.70 hPa46.00 %7.40 °C 
19:15:0019.90 °C1016.90 hPa45.00 %7.60 °C 
19:00:0020.50 °C1017.00 hPa44.00 %7.80 °C 
18:45:0021.10 °C1017.00 hPa43.00 %8.00 °C 
18:30:0021.40 °C1017.10 hPa41.00 %7.60 °C 
18:15:0021.60 °C1017.20 hPa40.00 %7.40 °C 
18:00:0021.90 °C1017.30 hPa41.00 %21.96 km/hSSO23.10 °C8.10 °C 
17:45:0022.30 °C1017.40 hPa41.00 %8.40 °C 
17:30:0022.70 °C1017.40 hPa40.00 %15.48 km/hSW22.70 °C8.40 °C 
17:15:0022.90 °C1017.40 hPa39.00 %8.20 °C 
17:00:0023.30 °C1017.40 hPa39.00 %8.60 °C 
16:45:0023.20 °C1017.40 hPa38.00 %8.10 °C 
16:30:0023.00 °C1017.50 hPa38.00 %20.88 km/hSO24.40 °C7.90 °C 
16:15:0023.10 °C1017.40 hPa39.00 %12.96 km/hS23.10 °C8.40 °C 
16:00:0022.80 °C1017.40 hPa41.00 %8.90 °C 
15:45:0023.00 °C1017.50 hPa41.00 %49.32 km/hSO24.00 °C9.00 °C 
15:30:0023.10 °C1017.30 hPa41.00 %9.10 °C 
15:15:0022.90 °C1017.50 hPa40.00 %8.60 °C 
15:00:0022.90 °C1017.60 hPa41.00 %9.00 °C 
14:45:0022.60 °C1017.60 hPa41.00 %11.52 km/hSO22.60 °C8.70 °C 
14:30:0022.90 °C1017.60 hPa42.00 %9.30 °C 
14:15:0022.90 °C1017.70 hPa44.00 %10.00 °C 
14:00:0022.60 °C1017.80 hPa43.00 %9.40 °C 
13:45:0022.80 °C1017.80 hPa46.00 %10.60 °C 
13:30:0022.10 °C1018.20 hPa44.00 %9.30 °C 
13:15:0022.20 °C1018.10 hPa43.00 %9.00 °C 
13:00:0022.40 °C1018.10 hPa45.00 %30.96 km/hSO23.50 °C9.90 °C 
12:45:0021.90 °C1018.50 hPa50.00 %11.00 °C 
12:30:0021.60 °C1018.40 hPa45.00 %14.40 km/hSSW21.60 °C9.20 °C 
12:15:0021.50 °C1018.40 hPa48.00 %10.00 °C 
12:00:0020.80 °C1018.40 hPa49.00 %9.70 °C 
11:45:0021.60 °C1018.50 hPa47.00 %7.92 km/hSW21.60 °C9.80 °C 
11:30:0021.10 °C1018.50 hPa49.00 %10.00 °C 
11:15:0020.80 °C1018.70 hPa49.00 %9.70 °C 
11:00:0020.60 °C1018.80 hPa51.00 %10.10 °C 
10:45:0019.90 °C1018.80 hPa51.00 %9.50 °C 
10:30:0019.60 °C1018.70 hPa51.00 %9.20 °C 
10:15:0019.10 °C1019.20 hPa54.00 %45.36 km/hOSO19.30 °C9.60 °C 
10:00:0018.50 °C1019.00 hPa55.00 %9.30 °C 
09:45:0017.90 °C1019.20 hPa57.00 %14.40 km/hSSO17.90 °C9.30 °C 
09:30:0017.50 °C1019.00 hPa59.00 %11.52 km/hSW17.50 °C9.40 °C 
09:15:0016.70 °C1018.90 hPa63.00 %9.60 °C 
09:00:0015.90 °C1018.90 hPa66.00 %9.60 °C 
08:45:0014.80 °C1019.00 hPa75.00 %10.40 °C 
08:30:0013.80 °C1019.20 hPa80.00 %10.40 °C 
08:15:0012.90 °C1019.10 hPa80.00 %9.50 °C 
08:00:0012.20 °C1019.20 hPa81.00 %9.00 °C 
07:45:0011.10 °C1019.30 hPa84.00 %8.50 °C 
07:30:009.30 °C1019.40 hPa90.00 %7.70 °C 
07:15:006.60 °C1019.30 hPa92.00 %5.40 °C 
07:00:006.10 °C1019.40 hPa92.00 %4.90 °C 
06:45:005.90 °C1019.60 hPa92.00 %4.70 °C 
06:30:005.80 °C1019.60 hPa92.00 %10.44 km/hO5.80 °C4.60 °C 
06:15:005.60 °C1019.60 hPa92.00 %4.40 °C 
06:00:005.20 °C1019.70 hPa92.00 %4.00 °C 
05:45:005.20 °C1019.70 hPa91.00 %3.90 °C 
05:30:005.30 °C1019.80 hPa91.00 %4.00 °C 
05:15:005.30 °C1019.70 hPa91.00 %15.48 km/hSO5.30 °C4.00 °C 
05:00:005.30 °C1019.80 hPa91.00 %4.00 °C 
04:45:005.40 °C1019.70 hPa91.00 %4.10 °C 
04:30:005.60 °C1019.90 hPa91.00 %4.20 °C 
04:15:005.80 °C1019.80 hPa91.00 %4.40 °C 
04:00:005.90 °C1020.10 hPa91.00 %21.96 km/hOSO4.70 °C4.50 °C 
03:45:005.90 °C1019.90 hPa91.00 %4.50 °C 
03:30:005.90 °C1020.20 hPa91.00 %4.50 °C 
03:15:005.90 °C1019.90 hPa91.00 %4.50 °C 
03:00:006.10 °C1019.90 hPa90.00 %4.60 °C 
02:45:006.40 °C1019.70 hPa90.00 %4.90 °C 
02:30:006.40 °C1019.90 hPa90.00 %4.90 °C 
02:15:006.60 °C1019.80 hPa90.00 %5.10 °C 
02:00:006.70 °C1020.00 hPa90.00 %10.44 km/hONO6.70 °C5.20 °C 
01:45:006.80 °C1020.20 hPa90.00 %5.30 °C 
01:30:006.90 °C1020.20 hPa90.00 %5.40 °C 
01:15:007.10 °C1020.20 hPa90.00 %5.60 °C 
01:00:007.00 °C1020.20 hPa89.00 %5.30 °C 
00:45:007.20 °C1020.20 hPa89.00 %5.50 °C 
00:30:007.30 °C1020.20 hPa88.00 %5.40 °C 
00:15:007.50 °C1019.80 hPa88.00 %5.60 °C 
00:00:007.90 °C1020.00 hPa88.00 %6.00 °C 

Permanenter Link zu dieser Seite: Wetter im Erzgebirge am 07.08.2017
Performance-Info: Die Erstellung der Seite / Statistik(en) / Tabelle(n) erforderte 5 Datenbankserver-Abfrage(n) und dauerte 123 Millisekunden. (Dieser Messwert ist von der Gesamt-Auslastung des Servers abhängig.)
Erzgebirge - Wetter | Erzgebirge - Wetter (Mobilgeräte) | Komplette Klimadatenbank